createdAt,value
2022-10-26T00:00:34.481Z,39.89
2022-10-26T00:05:41.750Z,39.99
2022-10-26T00:10:48.906Z,40.14
2022-10-26T00:15:56.215Z,40.19
2022-10-26T00:21:03.436Z,40.27
2022-10-26T00:26:11.079Z,40.29
2022-10-26T00:31:18.306Z,39.83
2022-10-26T00:36:25.543Z,40.31
2022-10-26T00:41:32.734Z,40.44
2022-10-26T00:46:39.922Z,40.53
2022-10-26T00:51:47.157Z,40.63
2022-10-26T00:56:54.339Z,40.70
2022-10-26T01:02:01.536Z,40.75
2022-10-26T01:07:08.848Z,40.84
2022-10-26T01:12:15.947Z,40.55
2022-10-26T01:17:23.163Z,40.81
2022-10-26T01:22:30.392Z,41.07
2022-10-26T01:27:37.580Z,41.00
2022-10-26T01:32:44.759Z,40.97
2022-10-26T01:37:52.189Z,41.04
2022-10-26T01:42:59.171Z,41.18
2022-10-26T01:48:06.421Z,41.33
2022-10-26T01:53:13.918Z,41.40
2022-10-26T01:58:21.063Z,41.51
2022-10-26T02:03:28.444Z,41.59
2022-10-26T02:08:35.562Z,41.16
2022-10-26T02:13:42.742Z,41.34
2022-10-26T02:18:49.916Z,41.43
2022-10-26T02:23:57.196Z,41.21
2022-10-26T02:29:04.322Z,41.42
2022-10-26T02:34:11.485Z,41.39
2022-10-26T02:39:18.661Z,41.36
2022-10-26T02:44:26.905Z,41.14
2022-10-26T02:49:34.117Z,41.34
2022-10-26T02:54:41.302Z,41.60
2022-10-26T02:59:48.482Z,41.74
2022-10-26T03:04:55.679Z,41.81
2022-10-26T03:10:02.908Z,41.85
2022-10-26T03:15:10.068Z,41.82
2022-10-26T03:20:17.284Z,41.80
2022-10-26T03:25:24.533Z,41.76
2022-10-26T03:30:31.661Z,41.70
2022-10-26T03:35:38.936Z,41.50
2022-10-26T03:40:46.141Z,41.70
2022-10-26T03:45:53.331Z,41.60
2022-10-26T03:51:00.507Z,41.58
2022-10-26T03:56:07.752Z,41.66
2022-10-26T04:01:14.972Z,41.77
2022-10-26T04:06:22.215Z,41.86
2022-10-26T04:11:29.462Z,41.92
2022-10-26T04:16:36.654Z,42.01
2022-10-26T04:21:43.852Z,42.23
2022-10-26T04:26:51.141Z,42.17
2022-10-26T04:31:58.293Z,42.33
2022-10-26T04:37:05.446Z,42.49
2022-10-26T04:42:12.724Z,42.60
2022-10-26T04:47:19.856Z,42.63
2022-10-26T04:52:27.178Z,42.63
2022-10-26T04:57:34.436Z,42.71
2022-10-26T05:02:42.361Z,42.76
2022-10-26T05:07:49.798Z,42.79
2022-10-26T05:12:56.959Z,42.97
2022-10-26T05:18:04.170Z,42.74
2022-10-26T05:23:11.427Z,42.72
2022-10-26T05:28:18.651Z,42.49
2022-10-26T05:33:25.818Z,42.56
2022-10-26T05:38:33.072Z,42.72
2022-10-26T05:43:40.284Z,42.48
2022-10-26T05:48:47.462Z,42.57
2022-10-26T05:53:54.674Z,42.66
2022-10-26T05:59:01.835Z,42.53
2022-10-26T06:04:08.993Z,42.41
2022-10-26T06:09:16.175Z,42.46
2022-10-26T06:14:24.135Z,42.41
2022-10-26T06:19:31.335Z,42.46
2022-10-26T06:24:38.504Z,42.59
2022-10-26T06:29:46.246Z,42.64
2022-10-26T06:34:53.438Z,42.51
2022-10-26T06:40:00.629Z,42.56
2022-10-26T06:45:09.035Z,42.57
2022-10-26T06:50:17.407Z,43.08
2022-10-26T06:55:24.603Z,42.86
2022-10-26T07:05:39.017Z,42.65
2022-10-26T07:10:47.044Z,43.14
2022-10-26T07:15:54.279Z,42.99
2022-10-26T07:21:01.459Z,42.88
2022-10-26T07:26:08.726Z,42.87
2022-10-26T07:31:15.993Z,42.70
2022-10-26T07:36:23.177Z,42.61
2022-10-26T07:41:30.396Z,42.39
2022-10-26T07:46:37.603Z,42.54
2022-10-26T07:51:44.777Z,43.42
2022-10-26T07:56:52.071Z,43.09
2022-10-26T08:01:59.379Z,42.91
2022-10-26T08:07:06.460Z,42.99
2022-10-26T08:12:13.723Z,43.09
2022-10-26T08:17:21.045Z,43.02
2022-10-26T08:22:28.253Z,42.89
2022-10-26T08:27:35.520Z,42.73
2022-10-26T08:32:42.775Z,42.67
2022-10-26T08:37:49.933Z,42.58
2022-10-26T08:42:57.128Z,42.45
2022-10-26T08:48:04.362Z,42.38
2022-10-26T08:53:11.588Z,42.42
2022-10-26T08:58:18.787Z,42.39
2022-10-26T09:03:26.044Z,42.29
2022-10-26T09:08:33.283Z,42.27
2022-10-26T09:13:40.505Z,42.19
2022-10-26T09:23:54.851Z,41.78
2022-10-26T09:29:02.092Z,41.67
2022-10-26T09:34:09.298Z,41.62
2022-10-26T09:39:16.800Z,41.47
2022-10-26T09:44:24.001Z,41.54
2022-10-26T09:49:31.224Z,41.40
2022-10-26T09:54:38.439Z,41.51
2022-10-26T09:59:45.645Z,41.34
2022-10-26T10:04:52.946Z,41.45
2022-10-26T10:10:00.146Z,41.38
2022-10-26T10:15:07.332Z,41.44
2022-10-26T10:20:14.565Z,41.43
2022-10-26T10:25:21.811Z,41.54
2022-10-26T10:30:28.954Z,41.59
2022-10-26T10:35:36.154Z,41.54
2022-10-26T10:40:43.653Z,41.62
2022-10-26T10:45:52.007Z,41.89
2022-10-26T10:50:58.128Z,42.78
2022-10-26T10:56:07.685Z,43.16
2022-10-26T11:01:12.585Z,43.14
2022-10-26T11:06:19.705Z,43.16
2022-10-26T11:11:26.838Z,42.86
2022-10-26T11:16:34.090Z,42.75
2022-10-26T11:21:41.320Z,42.79
2022-10-26T11:26:48.515Z,42.56
2022-10-26T11:31:55.698Z,42.39
2022-10-26T11:37:02.933Z,42.50
2022-10-26T11:42:10.163Z,42.41
2022-10-26T11:47:17.326Z,42.36
2022-10-26T11:52:24.743Z,42.31
2022-10-26T11:57:32.906Z,42.23
2022-10-26T12:02:40.171Z,42.19
2022-10-26T12:07:47.635Z,42.17
2022-10-26T12:12:55.247Z,42.15
2022-10-26T12:18:02.482Z,42.19
2022-10-26T12:23:09.750Z,42.18
2022-10-26T12:28:16.902Z,42.14
2022-10-26T12:33:24.142Z,42.13
2022-10-26T12:38:33.829Z,42.10
2022-10-26T12:43:38.698Z,42.39
2022-10-26T12:48:45.846Z,43.04
2022-10-26T12:53:53.087Z,43.39
2022-10-26T12:59:04.520Z,43.29
2022-10-26T13:04:07.476Z,43.28
2022-10-26T13:09:17.622Z,43.27
2022-10-26T13:14:21.888Z,43.18
2022-10-26T13:19:29.022Z,43.33
2022-10-26T13:29:43.483Z,43.10
2022-10-26T13:34:50.772Z,43.11
2022-10-26T13:39:58.001Z,43.26
2022-10-26T13:45:06.407Z,43.06
2022-10-26T13:50:13.641Z,43.11
2022-10-26T13:55:20.852Z,43.14
2022-10-26T14:00:28.023Z,43.10
2022-10-26T14:05:35.262Z,43.25
2022-10-26T14:10:42.541Z,43.45
2022-10-26T14:15:49.725Z,43.48
2022-10-26T14:20:56.984Z,43.68
2022-10-26T14:26:04.187Z,43.56
2022-10-26T14:31:12.992Z,43.67
2022-10-26T14:36:18.561Z,43.71
2022-10-26T14:41:25.863Z,43.69
2022-10-26T14:46:32.882Z,43.67
2022-10-26T14:51:40.119Z,43.67
2022-10-26T14:56:47.381Z,43.71
2022-10-26T15:01:56.331Z,43.62
2022-10-26T15:07:04.348Z,43.66
2022-10-26T15:12:13.444Z,43.67
2022-10-26T15:17:20.659Z,43.81
2022-10-26T15:22:31.765Z,43.72
2022-10-26T15:27:35.239Z,43.76
2022-10-26T15:32:42.419Z,43.82
2022-10-26T15:37:50.854Z,43.86
2022-10-26T15:42:58.258Z,43.96
2022-10-26T15:48:05.666Z,43.95
2022-10-26T15:53:13.001Z,44.05
2022-10-26T15:58:20.216Z,44.30
2022-10-26T16:03:27.451Z,44.08
2022-10-26T16:08:34.637Z,44.27
2022-10-26T16:13:41.871Z,44.02
2022-10-26T16:18:51.069Z,44.27
2022-10-26T16:23:56.703Z,44.16
2022-10-26T16:29:04.001Z,44.25
2022-10-26T16:34:11.201Z,44.52
2022-10-26T16:39:18.738Z,44.15
2022-10-26T16:44:26.140Z,44.00
2022-10-26T16:49:33.661Z,44.08
2022-10-26T16:54:41.275Z,44.14
2022-10-26T16:59:48.649Z,44.27
2022-10-26T17:04:58.064Z,44.04
2022-10-26T17:10:04.935Z,44.11
2022-10-26T17:15:15.904Z,44.16
2022-10-26T17:20:21.294Z,44.01
2022-10-26T17:25:28.932Z,44.00
2022-10-26T17:30:36.547Z,43.90
2022-10-26T17:35:44.239Z,43.75
2022-10-26T17:40:51.852Z,43.51
2022-10-26T17:45:59.603Z,43.78
2022-10-26T17:51:06.877Z,43.31
2022-10-26T17:56:14.389Z,43.47
2022-10-26T18:01:22.108Z,43.54
2022-10-26T18:06:29.719Z,43.37
2022-10-26T18:11:37.139Z,43.79
2022-10-26T18:16:45.729Z,43.70
2022-10-26T18:21:53.281Z,43.69
2022-10-26T18:27:00.996Z,43.69
2022-10-26T18:32:08.356Z,43.65
2022-10-26T18:37:15.566Z,43.71
2022-10-26T18:42:23.124Z,43.62
2022-10-26T18:47:30.864Z,43.70
2022-10-26T18:52:38.346Z,43.62
2022-10-26T18:57:45.963Z,43.54
2022-10-26T19:02:54.058Z,43.35
2022-10-26T19:08:01.302Z,43.37
2022-10-26T19:13:08.927Z,43.26
2022-10-26T19:18:16.363Z,43.11
2022-10-26T19:23:23.834Z,42.92
2022-10-26T19:28:31.556Z,42.89
2022-10-26T19:33:39.806Z,42.88
2022-10-26T19:38:47.289Z,42.89
2022-10-26T19:43:55.090Z,42.77
2022-10-26T19:49:02.660Z,42.65
2022-10-26T19:54:11.262Z,42.60
2022-10-26T19:59:18.886Z,42.53
2022-10-26T20:04:26.278Z,42.31
2022-10-26T20:09:33.694Z,42.42
2022-10-26T20:14:41.317Z,42.34
2022-10-26T20:19:48.944Z,42.41
2022-10-26T20:24:57.146Z,42.36
2022-10-26T20:30:04.250Z,42.57
2022-10-26T20:35:11.795Z,42.09
2022-10-26T20:40:19.386Z,41.90
2022-10-26T20:45:26.781Z,42.05
2022-10-26T20:50:34.222Z,41.70
2022-10-26T20:55:41.527Z,41.84
2022-10-26T21:00:48.861Z,41.58
2022-10-26T21:05:56.006Z,41.45
2022-10-26T21:11:03.234Z,41.22
2022-10-26T21:16:13.907Z,41.20
2022-10-26T21:21:21.107Z,41.28
2022-10-26T21:26:28.256Z,41.23
2022-10-26T21:31:40.549Z,41.33
2022-10-26T21:36:47.813Z,41.24
2022-10-26T21:41:55.038Z,40.94
2022-10-26T21:47:02.263Z,40.74
2022-10-26T21:52:09.484Z,40.51
2022-10-26T21:57:16.724Z,40.35
2022-10-26T22:02:24.101Z,40.14
2022-10-26T22:07:31.219Z,40.05
2022-10-26T22:12:38.464Z,39.65
2022-10-26T22:17:45.713Z,39.39
2022-10-26T22:22:53.001Z,39.27
2022-10-26T22:28:00.137Z,39.08
2022-10-26T22:33:07.358Z,39.15
2022-10-26T22:38:14.537Z,38.98
2022-10-26T22:43:21.778Z,38.73
2022-10-26T22:48:28.942Z,38.82
2022-10-26T22:53:36.155Z,39.08
2022-10-26T22:58:47.036Z,38.94
2022-10-26T23:03:54.221Z,39.23
2022-10-26T23:09:01.401Z,39.31
2022-10-26T23:14:08.552Z,39.33
2022-10-26T23:19:16.433Z,39.46
2022-10-26T23:24:23.683Z,39.53
2022-10-26T23:29:30.964Z,39.68
2022-10-26T23:34:39.357Z,39.86
2022-10-26T23:39:46.615Z,39.96
2022-10-26T23:44:53.827Z,40.15
2022-10-26T23:50:00.996Z,40.31
2022-10-26T23:55:08.209Z,40.47
